Time;durP1;ratioP1;P1;durP2;ratioP2;P2;SDS_P1;SDS_P2;PMS_P1;PMS_P2;Temp;Humidity;BMP_temperature;BMP_pressure;BME280_temperature;BME280_humidity;BME280_pressure;Samples;Min_cycle;Max_cycle;Signal;HPM_P1;HPM_P2
2024/01/20 00:00:01;;;;;;;20.23;12.20;;;;;;;-144.30;100.00;86392.53;5072682;28;20202;-57
2024/01/20 00:02:28;;;;;;;15.83;10.47;;;;;;;-144.30;100.00;86402.47;5072862;28;20203;-60
2024/01/20 00:04:55;;;;;;;15.30;10.10;;;;;;;-144.30;100.00;86386.56;5072968;28;20196;-60
2024/01/20 00:07:24;;;;;;;12.17;9.50;;;;;;;-144.30;100.00;86402.47;5073070;28;20199;-60
2024/01/20 00:09:50;;;;;;;12.77;9.00;;;;;;;-144.30;100.00;86386.56;5072808;28;20202;-59
2024/01/20 00:12:17;;;;;;;13.70;7.90;;;;;;;-144.30;99.67;86360.72;5072737;28;20210;-60
2024/01/20 00:14:44;;;;;;;11.50;7.90;;;;;;;-144.30;98.81;86366.69;5072538;28;20227;-60
2024/01/20 00:17:11;;;;;;;10.13;7.60;;;;;;;-144.30;98.06;86336.84;5073008;28;20222;-59
2024/01/20 00:19:38;;;;;;;11.07;7.27;;;;;;;-144.30;98.32;86412.41;5072627;28;20218;-60
2024/01/20 00:22:05;;;;;;;11.27;7.63;;;;;;;-144.30;97.92;86392.53;5072711;28;20630;-60
2024/01/20 00:24:34;;;;;;;8.40;7.00;;;;;;;-144.30;97.89;86342.81;5072566;28;20627;-59
2024/01/20 00:27:01;;;;;;;9.93;6.97;;;;;;;-144.30;97.48;86356.75;5072317;28;20737;-59
2024/01/20 00:29:27;;;;;;;10.47;6.97;;;;;;;-144.30;96.85;86390.53;5072694;28;20210;-61
2024/01/20 00:31:54;;;;;;;7.73;6.90;;;;;;;-144.30;96.68;86374.63;5072407;28;20192;-56
2024/01/20 00:34:21;;;;;;;8.63;7.03;;;;;;;-144.30;96.56;86398.50;5072337;28;20265;-60
2024/01/20 00:36:48;;;;;;;9.10;7.37;;;;;;;-144.30;96.31;86374.63;5071916;28;20203;-60
2024/01/20 00:39:15;;;;;;;8.70;7.30;;;;;;;-144.30;96.09;86344.81;5072232;28;20192;-60
2024/01/20 00:41:43;;;;;;;8.23;6.53;;;;;;;-144.30;95.90;86388.56;5072027;28;20329;-57
2024/01/20 00:44:10;;;;;;;8.80;7.17;;;;;;;-144.30;95.67;86366.69;5072148;28;20192;-59
2024/01/20 00:46:37;;;;;;;9.13;7.33;;;;;;;-144.30;95.47;86362.72;5072088;28;20222;-59
2024/01/20 00:49:04;;;;;;;8.90;6.67;;;;;;;-144.30;95.78;86378.63;5072126;28;20212;-59
2024/01/20 00:51:31;;;;;;;15.33;7.70;;;;;;;-144.30;95.16;86380.59;5072186;28;20199;-60
2024/01/20 00:53:58;;;;;;;7.80;7.00;;;;;;;-144.30;94.41;86422.38;5071835;28;20557;-59
2024/01/20 00:56:25;;;;;;;7.53;6.77;;;;;;;-144.30;94.23;86372.66;5072711;28;20648;-61
2024/01/20 00:58:53;;;;;;;10.80;7.17;;;;;;;-144.30;94.36;86402.47;5072304;28;20663;-56
2024/01/20 01:01:20;;;;;;;7.90;6.80;;;;;;;-144.30;94.54;86448.22;5071820;28;20196;-60
2024/01/20 01:03:47;;;;;;;12.37;7.23;;;;;;;-144.30;94.57;86408.44;5071836;28;20198;-60
2024/01/20 01:06:14;;;;;;;7.83;7.03;;;;;;;-144.30;94.83;86400.50;5071893;28;20199;-60
2024/01/20 01:08:41;;;;;;;7.27;6.53;;;;;;;-144.30;94.70;86380.59;5071628;28;20204;-56
2024/01/20 01:11:08;;;;;;;8.70;7.07;;;;;;;-144.30;93.71;86376.63;5071688;28;20203;-56
2024/01/20 01:13:37;;;;;;;8.83;7.67;;;;;;;-144.30;94.17;86398.50;5071625;28;20645;-60
2024/01/20 01:16:06;;;;;;;9.03;6.37;;;;;;;-144.30;95.15;86398.50;5071804;28;20722;-60
2024/01/20 01:18:33;;;;;;;8.90;6.97;;;;;;;-144.30;95.40;86434.28;5071542;28;20284;-60
2024/01/20 01:21:00;;;;;;;8.17;6.70;;;;;;;-144.30;95.25;86412.41;5071701;28;20229;-60
2024/01/20 01:23:27;;;;;;;8.40;6.43;;;;;;;-144.30;95.45;86402.47;5071636;28;20378;-60
2024/01/20 01:25:54;;;;;;;10.23;6.97;;;;;;;-144.30;95.18;86410.44;5071215;28;20202;-60
2024/01/20 01:28:21;;;;;;;7.53;6.30;;;;;;;-144.30;94.95;86382.59;5071082;28;20231;-56
2024/01/20 01:30:49;;;;;;;6.17;5.57;;;;;;;-144.30;95.14;86410.44;5071292;28;20200;-60
2024/01/20 01:33:17;;;;;;;7.87;6.10;;;;;;;-144.30;94.84;86436.28;5071021;28;20577;-60
2024/01/20 01:35:44;;;;;;;8.57;5.77;;;;;;;-144.30;94.33;86416.41;5071157;28;20216;-60
2024/01/20 01:38:11;;;;;;;8.77;6.20;;;;;;;-144.30;94.88;86402.47;5071362;28;20200;-60
2024/01/20 01:40:37;;;;;;;6.50;5.90;;;;;;;-144.30;94.88;86410.44;5071215;28;20299;-60
2024/01/20 01:43:04;;;;;;;6.17;5.53;;;;;;;-144.30;95.11;86402.47;5071178;28;20200;-60
2024/01/20 01:45:31;;;;;;;6.67;5.83;;;;;;;-144.30;94.38;86392.53;5071540;28;20716;-59
2024/01/20 01:47:58;;;;;;;6.27;5.67;;;;;;;-144.30;94.42;86468.09;5070936;28;20200;-60
2024/01/20 01:50:27;;;;;;;10.37;6.00;;;;;;;-144.30;93.24;86486.00;5071276;28;20663;-60
2024/01/20 01:52:55;;;;;;;6.70;6.00;;;;;;;-144.30;93.07;86448.22;5070813;28;20199;-59
2024/01/20 01:55:24;;;;;;;6.50;5.33;;;;;;;-144.30;91.97;86406.44;5070561;28;20215;-59
2024/01/20 01:57:53;;;;;;;10.03;6.10;;;;;;;-144.30;92.33;86424.34;5071221;28;20223;-59
2024/01/20 02:00:20;;;;;;;5.77;5.23;;;;;;;-144.30;92.18;86450.19;5070945;28;20196;-59
2024/01/20 02:02:47;;;;;;;9.83;5.70;;;;;;;-144.30;91.72;86394.53;5070445;28;20707;-60
2024/01/20 02:05:14;;;;;;;6.87;5.50;;;;;;;-144.30;91.74;86414.41;5070677;28;20215;-57
2024/01/20 02:07:43;;;;;;;8.07;5.20;;;;;;;-144.30;92.03;86418.38;5070390;28;20207;-56
2024/01/20 02:10:11;;;;;;;5.47;4.97;;;;;;;-144.30;91.62;86418.38;5070297;28;20207;-56
2024/01/20 02:12:40;;;;;;;6.20;5.17;;;;;;;-144.30;91.55;86426.34;5070449;28;20192;-56
2024/01/20 02:15:08;;;;;;;5.23;4.57;;;;;;;-144.30;90.54;86416.41;5070035;28;20226;-55
2024/01/20 02:17:34;;;;;;;7.27;4.87;;;;;;;-144.30;90.29;86408.44;5070455;28;20203;-56
2024/01/20 02:20:01;;;;;;;5.23;4.73;;;;;;;-144.30;90.77;86424.34;5070445;28;20676;-56
2024/01/20 02:22:30;;;;;;;7.80;5.17;;;;;;;-144.30;90.11;86420.38;5070136;28;20192;-56
2024/01/20 02:24:57;;;;;;;5.73;5.17;;;;;;;-144.30;89.87;86424.34;5070106;28;20551;-59
2024/01/20 02:27:23;;;;;;;4.77;4.30;;;;;;;-144.30;89.57;86408.44;5070246;28;20719;-60
2024/01/20 02:29:50;;;;;;;5.67;4.30;;;;;;;-144.30;89.44;86418.38;5070421;28;20687;-60
2024/01/20 02:32:17;;;;;;;4.53;4.13;;;;;;;-144.30;89.38;86438.28;5070284;28;20207;-60
2024/01/20 02:34:44;;;;;;;6.63;4.10;;;;;;;-144.30;88.92;86484.00;5070409;28;20233;-60
2024/01/20 02:37:11;;;;;;;4.27;3.97;;;;;;;-144.30;88.88;86454.19;5070394;28;20199;-60
2024/01/20 02:39:39;;;;;;;5.60;4.13;;;;;;;-144.30;89.06;86434.28;5070173;28;20254;-60
2024/01/20 02:42:08;;;;;;;5.50;4.60;;;;;;;-144.30;89.28;86434.28;5069989;28;20202;-60
2024/01/20 02:44:35;;;;;;;4.90;4.30;;;;;;;-144.30;89.37;86434.28;5069498;28;20745;-61
2024/01/20 02:47:02;;;;;;;6.87;4.90;;;;;;;-144.30;88.97;85984.91;5070078;28;20198;-57
2024/01/20 02:49:29;;;;;;;9.03;3.77;;;;;;;-144.30;88.04;86436.28;5069892;28;20196;-55
2024/01/20 02:51:56;;;;;;;4.37;3.90;;;;;;;-144.30;87.77;86480.03;5069648;28;20195;-56
2024/01/20 02:54:23;;;;;;;7.70;3.80;;;;;;;-144.30;87.92;86486.00;5069988;28;20191;-61
2024/01/20 02:56:50;;;;;;;4.13;3.77;;;;;;;-144.30;87.75;86430.31;5070034;28;20223;-60
2024/01/20 02:59:17;;;;;;;4.10;3.67;;;;;;;-144.30;87.87;86466.09;5070275;28;20273;-60
2024/01/20 03:01:44;;;;;;;4.20;3.90;;;;;;;-144.30;87.87;86454.19;5069764;28;20192;-59
2024/01/20 03:04:11;;;;;;;4.00;3.70;;;;;;;-144.30;88.11;86452.19;5070344;28;20574;-59
2024/01/20 03:06:37;;;;;;;4.50;4.00;;;;;;;-144.30;87.77;86438.28;5069868;28;20697;-60
2024/01/20 03:09:05;;;;;;;4.00;3.57;;;;;;;-144.30;87.68;86460.16;5069644;28;20200;-60
2024/01/20 03:11:32;;;;;;;5.10;3.83;;;;;;;-144.30;87.22;86468.09;5069564;28;20207;-55
2024/01/20 03:14:00;;;;;;;3.87;3.47;;;;;;;-144.30;87.53;86486.00;5069444;28;20203;-56
2024/01/20 03:16:27;;;;;;;3.60;3.30;;;;;;;-144.30;87.45;86462.13;5069445;28;20227;-56
2024/01/20 03:18:54;;;;;;;3.27;2.97;;;;;;;-144.30;87.12;86486.00;5069531;28;20214;-56
2024/01/20 03:21:21;;;;;;;4.30;3.23;;;;;;;-144.30;87.18;86420.38;5069468;28;20196;-56
2024/01/20 03:23:48;;;;;;;4.20;3.70;;;;;;;-144.30;86.85;86482.03;5069322;28;20204;-57
2024/01/20 03:26:15;;;;;;;3.97;3.67;;;;;;;-144.30;87.26;86476.06;5069492;28;20187;-57
2024/01/20 03:28:42;;;;;;;7.50;3.97;;;;;;;-144.30;87.20;86486.00;5069240;28;20314;-57
2024/01/20 03:31:10;;;;;;;3.90;3.53;;;;;;;-144.30;86.94;86478.03;5069550;28;20202;-55
2024/01/20 03:33:37;;;;;;;5.73;4.03;;;;;;;-144.30;86.41;86456.16;5069592;28;20200;-56
2024/01/20 03:36:04;;;;;;;4.10;3.73;;;;;;;-144.30;86.03;86446.22;5069169;28;20529;-56
2024/01/20 03:38:31;;;;;;;3.70;3.40;;;;;;;-144.30;86.40;86442.25;5069324;28;20751;-57
2024/01/20 03:40:58;;;;;;;6.77;3.73;;;;;;;-144.30;86.50;86458.16;5069114;28;20214;-57
2024/01/20 03:43:25;;;;;;;8.07;3.93;;;;;;;-144.30;85.72;86452.19;5069294;28;20193;-57
2024/01/20 03:45:53;;;;;;;4.07;3.77;;;;;;;-144.30;85.52;86491.97;5069167;28;20204;-57
2024/01/20 03:48:21;;;;;;;3.63;3.33;;;;;;;-144.30;85.24;86436.28;5069296;28;20202;-61
2024/01/20 03:50:48;;;;;;;8.10;4.40;;;;;;;-144.30;84.83;86384.59;5069069;28;20257;-57
2024/01/20 03:53:15;;;;;;;4.20;3.37;;;;;;;-144.30;84.92;86466.09;5069559;28;20196;-55
2024/01/20 03:55:42;;;;;;;4.07;3.43;;;;;;;-144.30;85.18;86446.22;5069797;28;20224;-56
2024/01/20 03:58:09;;;;;;;3.73;3.40;;;;;;;-144.30;85.36;86470.09;5072963;28;20199;-57
2024/01/20 04:00:35;;;;;;;3.73;3.33;;;;;;;-144.30;84.79;86462.13;5072877;28;20206;-56
2024/01/20 04:03:03;;;;;;;4.80;3.27;;;;;;;-144.30;85.11;86480.03;5072803;28;20207;-59
2024/01/20 04:05:31;;;;;;;3.67;3.33;;;;;;;-144.30;85.57;86464.13;5073140;28;20192;-60
2024/01/20 04:07:58;;;;;;;4.50;3.03;;;;;;;-144.30;85.16;86478.03;5072652;28;20287;-60
2024/01/20 04:10:25;;;;;;;4.30;3.60;;;;;;;-144.30;85.24;86493.94;5072951;28;20196;-61
2024/01/20 04:12:52;;;;;;;4.40;3.40;;;;;;;-144.30;85.43;86493.94;5072631;28;20231;-56
2024/01/20 04:15:19;;;;;;;4.97;3.77;;;;;;;-144.30;85.43;86464.13;5072684;28;20633;-56
2024/01/20 04:17:45;;;;;;;3.67;3.37;;;;;;;-144.30;85.35;86515.81;5072572;28;20200;-60
2024/01/20 04:20:12;;;;;;;3.90;3.50;;;;;;;-144.30;84.89;86503.91;5072586;28;20349;-60
2024/01/20 04:22:41;;;;;;;3.80;2.60;;;;;;;-144.30;84.24;86521.78;5073113;28;20226;-59
2024/01/20 04:25:08;;;;;;;3.20;2.90;;;;;;;-144.30;84.24;86499.91;5072404;28;20204;-60
2024/01/20 04:27:40;;;;;;;5.30;3.73;;;;;;;-144.30;84.40;86462.13;5072305;28;20323;-56
2024/01/20 04:30:08;;;;;;;3.20;2.97;;;;;;;-144.30;84.33;86501.91;5072431;28;20206;-56
2024/01/20 04:32:35;;;;;;;3.97;3.60;;;;;;;-144.30;84.39;86482.03;5072111;28;20210;-56
2024/01/20 04:35:02;;;;;;;4.53;3.10;;;;;;;-144.30;84.52;86513.84;5072093;28;20200;-57
2024/01/20 04:37:29;;;;;;;3.57;3.03;;;;;;;-144.30;83.87;86489.97;5072234;28;20290;-57
2024/01/20 04:39:58;;;;;;;3.10;2.90;;;;;;;-144.30;83.73;86454.19;5072258;28;20563;-56
2024/01/20 04:42:24;;;;;;;4.57;2.73;;;;;;;-144.30;84.38;86501.91;5072135;28;20204;-56
2024/01/20 04:44:51;;;;;;;3.40;2.87;;;;;;;-144.30;84.94;86505.88;5071997;28;20584;-59
2024/01/20 04:47:18;;;;;;;3.10;2.90;;;;;;;-144.30;84.22;86478.03;5072103;28;20516;-59
2024/01/20 04:49:45;;;;;;;5.60;3.40;;;;;;;-144.30;83.95;86474.06;5072473;28;20679;-60
2024/01/20 04:52:12;;;;;;;3.93;3.13;;;;;;;-144.30;84.55;86223.50;5072219;28;20291;-60
2024/01/20 04:54:39;;;;;;;3.03;2.70;;;;;;;-144.30;84.04;86446.22;5072087;28;20200;-61
2024/01/20 04:57:07;;;;;;;3.03;2.70;;;;;;;-144.30;85.10;86517.81;5071580;28;20238;-60
2024/01/20 04:59:34;;;;;;;3.17;2.97;;;;;;;-144.30;84.06;86501.91;5071903;28;20206;-55
2024/01/20 05:02:01;;;;;;;2.90;2.70;;;;;;;-144.30;83.49;86487.97;5071615;28;20584;-57
2024/01/20 05:04:28;;;;;;;3.10;2.73;;;;;;;-144.30;83.80;86472.06;5071764;28;20204;-57
2024/01/20 05:06:54;;;;;;;2.67;2.47;;;;;;;-144.30;83.05;86486.00;5071023;28;20199;-60
2024/01/20 05:09:21;;;;;;;3.53;2.67;;;;;;;-144.30;83.05;86505.88;5071445;28;20206;-60
2024/01/20 05:11:48;;;;;;;2.13;1.93;;;;;;;-144.30;82.21;86543.66;5071688;28;20199;-60
2024/01/20 05:14:16;;;;;;;2.40;2.20;;;;;;;-144.30;83.02;86489.97;5071698;28;20570;-60
2024/01/20 05:16:43;;;;;;;2.10;2.00;;;;;;;-144.30;83.17;86505.88;5071893;28;20645;-59
2024/01/20 05:19:10;;;;;;;3.27;2.30;;;;;;;-144.30;82.93;86523.78;5071430;28;20590;-59
2024/01/20 05:21:38;;;;;;;2.77;2.57;;;;;;;-144.30;83.51;86491.97;5056906;28;20231;-60
2024/01/20 05:24:05;;;;;;;2.93;2.60;;;;;;;-144.30;83.68;86541.69;5051199;28;20197;-60
2024/01/20 05:26:32;;;;;;;3.10;2.90;;;;;;;-144.30;85.88;86529.75;5067031;28;20199;-59
2024/01/20 05:28:59;;;;;;;4.73;2.40;;;;;;;-144.30;85.53;86517.81;5071829;28;20200;-60
2024/01/20 05:31:31;;;;;;;3.33;2.60;;;;;;;-144.30;85.31;86513.84;5071857;28;20200;-60
2024/01/20 05:33:58;;;;;;;2.50;2.30;;;;;;;-144.30;85.05;86537.69;5072082;28;20204;-60
2024/01/20 05:36:25;;;;;;;3.00;2.80;;;;;;;-144.30;85.16;86549.63;5071381;28;20224;-59
2024/01/20 05:38:52;;;;;;;2.70;2.50;;;;;;;-144.30;84.47;86521.78;5063038;28;20201;-60
2024/01/20 05:41:19;;;;;;;4.57;2.50;;;;;;;-144.30;83.92;86521.78;5050807;28;20204;-61
2024/01/20 05:43:46;;;;;;;4.13;2.90;;;;;;;-144.30;83.58;86513.84;5051043;28;20578;-59
2024/01/20 05:46:12;;;;;;;3.60;2.60;;;;;;;-144.30;83.73;86533.72;5050623;28;20220;-60
2024/01/20 05:48:41;;;;;;;2.40;2.20;;;;;;;-144.30;83.20;86519.81;5050736;28;20204;-59
2024/01/20 05:51:08;;;;;;;2.50;2.30;;;;;;;-144.30;83.66;86567.53;5050287;28;20207;-56
2024/01/20 05:53:34;;;;;;;2.00;1.90;;;;;;;-144.30;83.07;86499.91;5050427;28;20279;-57
2024/01/20 05:56:01;;;;;;;2.80;2.50;;;;;;;-144.30;83.49;86529.75;5049530;28;20228;-58
2024/01/20 05:58:28;;;;;;;2.53;2.33;;;;;;;-144.30;82.06;86521.78;5050476;28;20250;-60
2024/01/20 06:00:55;;;;;;;4.60;2.77;;;;;;;-144.30;82.57;86482.03;5050419;28;20687;-59
2024/01/20 06:03:25;;;;;;;3.00;2.43;;;;;;;-144.30;82.57;86486.00;5050287;28;20193;-59
2024/01/20 06:05:53;;;;;;;2.80;2.60;;;;;;;-144.30;83.21;86553.59;5050318;28;20188;-60
2024/01/20 06:08:20;;;;;;;2.50;2.30;;;;;;;-144.30;83.23;86533.72;5050370;28;20203;-59
2024/01/20 06:10:47;;;;;;;3.60;2.50;;;;;;;-144.30;82.46;86547.66;5061379;28;20721;-59
2024/01/20 06:13:14;;;;;;;2.30;2.10;;;;;;;-144.30;82.52;86527.75;5070419;28;20552;-59
2024/01/20 06:15:41;;;;;;;2.60;2.20;;;;;;;-144.30;82.32;86551.63;5069966;28;20202;-59
2024/01/20 06:18:07;;;;;;;1.93;1.83;;;;;;;-144.30;82.34;86537.69;5070092;28;20214;-60
2024/01/20 06:20:34;;;;;;;2.70;2.37;;;;;;;-144.30;82.40;86535.72;5055730;28;20193;-59
2024/01/20 06:23:03;;;;;;;2.87;2.67;;;;;;;-144.30;82.10;86533.72;5049771;28;20668;-60
2024/01/20 06:25:29;;;;;;;3.20;2.30;;;;;;;-144.30;82.12;86521.78;5049597;28;20684;-59
2024/01/20 06:27:56;;;;;;;2.40;2.20;;;;;;;-144.30;81.69;86561.56;5049578;28;20231;-59
2024/01/20 06:30:23;;;;;;;9.40;1.93;;;;;;;-144.30;80.38;86573.50;5049948;28;20752;-60
2024/01/20 06:32:50;;;;;;;2.97;1.90;;;;;;;-144.30;80.77;86565.53;5049808;28;20201;-59
2024/01/20 06:35:17;;;;;;;2.43;2.23;;;;;;;-144.30;80.22;86541.69;5049740;28;20200;-59
2024/01/20 06:37:44;;;;;;;2.77;2.13;;;;;;;-144.30;79.71;86543.66;5049414;28;20220;-59
2024/01/20 06:40:13;;;;;;;2.20;2.03;;;;;;;-144.30;80.05;86575.47;5069087;28;20207;-60
2024/01/20 06:42:39;;;;;;;2.73;2.53;;;;;;;-144.30;82.01;86525.75;5089248;28;20256;-59
2024/01/20 06:45:07;;;;;;;2.20;2.10;;;;;;;-144.30;83.23;86575.47;5089417;28;20200;-59
2024/01/20 06:47:34;;;;;;;1.83;1.73;;;;;;;-144.30;83.29;86543.66;5090186;28;20192;-60
2024/01/20 06:50:01;;;;;;;2.77;2.20;;;;;;;-144.30;85.28;86557.59;5089742;28;20208;-59
2024/01/20 06:52:29;;;;;;;2.43;2.10;;;;;;;-144.30;86.01;86545.66;5089840;28;20195;-57
2024/01/20 06:54:56;;;;;;;5.10;2.40;;;;;;;-144.30;87.24;86565.53;5090017;28;20675;-58
2024/01/20 06:57:24;;;;;;;2.10;1.90;;;;;;;-144.30;88.67;86521.78;5089747;28;20236;-57
2024/01/20 06:59:51;;;;;;;2.70;2.37;;;;;;;-144.30;89.54;86573.50;5089872;28;20200;-56
2024/01/20 07:02:18;;;;;;;2.30;2.10;;;;;;;-144.30;88.72;86557.59;5089807;28;20203;-56
2024/01/20 07:04:45;;;;;;;2.20;2.00;;;;;;;-144.30;89.05;86599.34;5089712;28;20202;-56
2024/01/20 07:07:12;;;;;;;2.33;2.13;;;;;;;-144.30;89.10;86599.34;5089908;28;20550;-56
2024/01/20 07:09:40;;;;;;;2.75;2.55;;;;;;;-144.30;89.83;86583.44;5074818;28;20456;-55
2024/01/20 07:12:07;;;;;;;2.40;2.23;;;;;;;-144.30;90.79;86603.31;5065984;28;20233;-55
2024/01/20 07:14:36;;;;;;;2.20;2.10;;;;;;;-144.30;91.94;86595.38;5065052;28;20200;-54
2024/01/20 07:17:05;;;;;;;3.70;2.73;;;;;;;-144.30;92.44;86581.44;5064522;28;20259;-60
2024/01/20 07:19:32;;;;;;;2.30;2.20;;;;;;;-144.30;93.32;86629.19;5069262;28;20200;-59
2024/01/20 07:21:58;;;;;;;2.50;2.30;;;;;;;-144.30;94.37;86611.28;5068995;28;20199;-59
2024/01/20 07:24:27;;;;;;;3.20;2.33;;;;;;;-144.30;94.76;86589.41;5069317;28;20191;-55
2024/01/20 07:26:54;;;;;;;2.40;2.23;;;;;;;-144.30;95.96;86617.25;5068772;28;20239;-55
2024/01/20 07:29:21;;;;;;;2.53;2.33;;;;;;;-144.30;95.93;86569.50;5068994;28;20192;-56
2024/01/20 07:31:50;;;;;;;3.33;2.30;;;;;;;-144.30;96.29;86631.16;5071205;28;20206;-56
2024/01/20 07:34:17;;;;;;;3.93;2.07;;;;;;;-144.30;96.81;86625.19;5073200;28;20207;-60
2024/01/20 07:36:44;;;;;;;2.23;2.03;;;;;;;-144.30;97.07;86621.22;5073048;28;20317;-57
2024/01/20 07:39:11;;;;;;;2.37;2.17;;;;;;;-144.30;98.39;86684.84;5071482;28;20203;-59
2024/01/20 07:41:38;;;;;;;3.53;2.00;;;;;;;-144.30;99.62;86676.91;5073023;28;20643;-58
2024/01/20 07:44:05;;;;;;;2.17;1.93;;;;;;;-144.30;100.00;86637.13;5072804;28;20202;-59
2024/01/20 07:46:32;;;;;;;2.23;1.67;;;;;;;-144.30;100.00;86704.75;5072704;28;20188;-58
2024/01/20 07:49:00;;;;;;;1.80;1.70;;;;;;;-144.30;100.00;86672.94;5072650;28;20200;-58
2024/01/20 07:51:27;;;;;;;2.10;1.90;;;;;;;-144.30;100.00;86706.72;5072348;28;20580;-60
2024/01/20 07:53:54;;;;;;;2.70;1.83;;;;;;;-144.30;100.00;86684.84;5072604;28;20654;-58
2024/01/20 07:56:21;;;;;;;2.13;1.80;;;;;;;-144.30;100.00;86728.59;5069867;28;20204;-56
2024/01/20 07:58:48;;;;;;;2.33;1.93;;;;;;;-144.30;100.00;86724.63;5064583;28;20205;-55
2024/01/20 08:01:17;;;;;;;3.33;2.07;;;;;;;-144.30;100.00;86686.84;5064477;28;20700;-59
2024/01/20 08:03:43;;;;;;;1.77;1.67;;;;;;;-144.30;100.00;86716.69;5054017;28;20603;-56
2024/01/20 08:06:12;;;;;;;2.30;2.10;;;;;;;-144.30;100.00;86702.75;5070536;28;20200;-56
2024/01/20 08:08:39;;;;;;;2.27;2.10;;;;;;;-144.30;100.00;86708.72;5071519;28;20590;-57
2024/01/20 08:11:06;;;;;;;2.00;1.90;;;;;;;-144.30;100.00;86740.53;5072018;28;20279;-57
2024/01/20 08:13:33;;;;;;;2.00;1.90;;;;;;;-144.30;100.00;86722.66;5071627;28;20200;-57
2024/01/20 08:16:00;;;;;;;2.33;2.13;;;;;;;-144.30;100.00;86692.81;5058785;28;20661;-57
2024/01/20 08:18:27;;;;;;;2.30;2.17;;;;;;;-144.30;100.00;86730.59;5052473;28;20275;-57
2024/01/20 08:20:54;;;;;;;2.70;2.50;;;;;;;-144.30;100.00;86726.63;5058786;28;20537;-56
2024/01/20 08:23:22;;;;;;;3.10;2.80;;;;;;;-144.30;100.00;86694.81;5092385;28;20286;-56
2024/01/20 08:25:49;;;;;;;3.70;3.07;;;;;;;-144.30;100.00;86726.63;5092417;28;20203;-57
2024/01/20 08:28:16;;;;;;;3.33;3.00;;;;;;;-144.30;100.00;86744.53;5092196;28;20223;-58
2024/01/20 08:30:43;;;;;;;3.20;2.93;;;;;;;-144.30;100.00;86714.69;5083347;28;20587;-57
2024/01/20 08:33:10;;;;;;;2.87;2.60;;;;;;;-144.30;100.00;86750.50;5071821;28;20713;-57
2024/01/20 08:35:37;;;;;;;4.10;3.00;;;;;;;-144.30;100.00;86752.47;5071585;28;20664;-57
2024/01/20 08:38:04;;;;;;;3.80;3.40;;;;;;;-144.30;100.00;86728.59;5070812;28;20299;-57
2024/01/20 08:40:32;;;;;;;4.93;3.33;;;;;;;-144.30;100.00;86684.84;5071066;28;20199;-57
2024/01/20 08:42:59;;;;;;;3.83;3.20;;;;;;;-144.30;100.00;86730.59;5069944;28;20195;-57
2024/01/20 08:45:26;;;;;;;3.20;2.90;;;;;;;-144.30;100.00;86746.50;5071641;28;20687;-58
2024/01/20 08:47:53;;;;;;;3.47;3.10;;;;;;;-144.30;100.00;86748.50;5071354;28;20203;-57
2024/01/20 08:50:20;;;;;;;3.43;2.70;;;;;;;-144.30;100.00;86716.69;5071835;28;20690;-55
2024/01/20 08:52:47;;;;;;;3.43;3.13;;;;;;;-144.30;100.00;86672.94;5071976;28;20592;-55
2024/01/20 08:55:14;;;;;;;4.20;3.80;;;;;;;-144.30;100.00;86780.31;5070182;28;20297;-56
2024/01/20 08:57:42;;;;;;;3.33;3.03;;;;;;;-144.30;100.00;86744.53;5071330;28;20292;-55
2024/01/20 09:00:12;;;;;;;2.63;2.43;;;;;;;-144.30;100.00;86764.41;5071273;28;20575;-57
2024/01/20 09:02:39;;;;;;;3.00;2.80;;;;;;;-144.30;100.00;86758.44;5051842;28;20215;-58
2024/01/20 09:05:07;;;;;;;3.20;2.83;;;;;;;-144.30;100.00;86772.34;5065289;28;20195;-56
2024/01/20 09:07:34;;;;;;;3.50;3.03;;;;;;;-144.30;100.00;86764.41;5070056;28;20218;-56
2024/01/20 09:10:02;;;;;;;3.10;2.80;;;;;;;-144.30;100.00;86740.53;5069493;28;20644;-55
2024/01/20 09:12:29;;;;;;;3.07;2.80;;;;;;;-144.30;100.00;86784.28;5069787;28;20201;-56
2024/01/20 09:14:57;;;;;;;3.40;2.97;;;;;;;-144.30;100.00;86748.50;5069494;28;20194;-55
2024/01/20 09:17:24;;;;;;;3.50;3.20;;;;;;;-144.30;100.00;86752.47;5069702;28;20216;-56
2024/01/20 09:19:51;;;;;;;3.57;3.27;;;;;;;-144.30;100.00;86772.34;5069888;28;20206;-54
2024/01/20 09:22:18;;;;;;;3.40;3.10;;;;;;;-144.30;100.00;86768.38;5069259;28;20196;-55
2024/01/20 09:24:45;;;;;;;2.77;2.57;;;;;;;-144.30;100.00;86772.34;5071319;28;20581;-56
2024/01/20 09:27:12;;;;;;;3.40;3.00;;;;;;;-144.30;100.00;86738.56;5070905;28;20613;-55
2024/01/20 09:29:39;;;;;;;2.80;2.60;;;;;;;-144.30;100.00;86772.34;5071215;28;20567;-55
2024/01/20 09:32:08;;;;;;;5.03;3.97;;;;;;;-144.30;100.00;86754.47;5070989;28;20679;-56
2024/01/20 09:34:35;;;;;;;3.07;2.77;;;;;;;-144.30;100.00;86792.25;5071127;28;20245;-55
2024/01/20 09:37:03;;;;;;;3.73;2.70;;;;;;;-144.30;100.00;86758.44;5070558;28;20706;-56
2024/01/20 09:39:29;;;;;;;2.27;2.10;;;;;;;-144.30;100.00;86782.31;5071708;28;20199;-56
2024/01/20 09:41:57;;;;;;;2.30;2.10;;;;;;;-144.30;100.00;86798.22;5070931;28;20203;-56
2024/01/20 09:44:24;;;;;;;2.67;2.40;;;;;;;-144.30;100.00;86776.34;5071144;28;20328;-55
2024/01/20 09:46:52;;;;;;;2.37;2.17;;;;;;;-144.30;100.00;86792.25;5070719;28;20210;-55
2024/01/20 09:49:20;;;;;;;2.40;2.00;;;;;;;-144.30;100.00;86959.31;5070578;28;20243;-56
2024/01/20 09:51:51;;;;;;;2.30;2.10;;;;;;;-144.30;100.00;86780.31;5070754;28;20200;-56
2024/01/20 09:54:21;;;;;;;2.67;2.47;;;;;;;-144.30;100.00;86722.66;5070613;28;20634;-56
2024/01/20 09:56:48;;;;;;;4.20;3.80;;;;;;;-144.30;100.00;86754.47;5070860;28;20191;-57
2024/01/20 09:59:15;;;;;;;3.63;3.33;;;;;;;-144.30;100.00;86756.44;5070574;28;20675;-62
2024/01/20 10:01:44;;;;;;;6.73;3.70;;;;;;;-144.30;100.00;86718.66;5070554;28;20207;-57
2024/01/20 10:04:16;;;;;;;3.63;3.33;;;;;;;-144.30;100.00;86752.47;5070392;28;20278;-56
2024/01/20 10:06:44;;;;;;;3.80;3.50;;;;;;;-144.30;100.00;86756.44;5070406;28;20211;-56
2024/01/20 10:09:11;;;;;;;4.57;4.17;;;;;;;-144.30;100.00;86784.28;5070049;28;20203;-57
2024/01/20 10:11:38;;;;;;;7.23;5.00;;;;;;;-144.30;100.00;86812.13;5069908;28;20209;-57
2024/01/20 10:14:05;;;;;;;5.40;4.63;;;;;;;-144.30;100.00;86748.50;5070093;28;20615;-56
2024/01/20 10:16:39;;;;;;;8.37;4.43;;;;;;;-144.30;100.00;86760.44;5070415;28;20204;-56
2024/01/20 10:19:05;;;;;;;4.30;3.90;;;;;;;-144.30;100.00;86776.34;5070063;28;20230;-57
2024/01/20 10:21:39;;;;;;;3.93;3.60;;;;;;;-144.30;100.00;86776.34;5069487;28;20203;-57
2024/01/20 10:24:08;;;;;;;7.50;4.00;;;;;;;-144.30;100.00;86754.47;5067666;28;20280;-55
2024/01/20 10:26:42;;;;;;;5.03;4.30;;;;;;;-144.30;100.00;86750.50;5069160;28;20194;-56
2024/01/20 10:29:09;;;;;;;5.27;4.17;;;;;;;-144.30;100.00;86754.47;5066833;28;20882;-57
2024/01/20 10:31:36;;;;;;;3.80;3.50;;;;;;;-144.30;100.00;86732.59;5070299;28;20233;-56
2024/01/20 10:34:03;;;;;;;5.70;4.63;;;;;;;-144.30;100.00;86770.38;5070276;28;20196;-57
2024/01/20 10:36:33;;;;;;;5.67;4.27;;;;;;;-144.30;100.00;86768.38;5069979;28;20188;-57
2024/01/20 10:39:04;;;;;;;5.27;4.00;;;;;;;-144.30;100.00;86766.41;5069918;28;20314;-57
2024/01/20 10:41:41;;;;;;;5.57;5.00;;;;;;;-144.30;100.00;86788.28;5070134;28;20677;-56
2024/01/20 10:44:11;;;;;;;6.67;4.97;;;;;;;-144.30;100.00;86720.66;5069745;28;20234;-57
2024/01/20 10:46:43;;;;;;;6.57;5.93;;;;;;;-144.30;100.00;86744.53;5068642;28;20570;-57
2024/01/20 10:49:16;;;;;;;9.60;6.27;;;;;;;-144.30;100.00;86760.44;5068560;28;20198;-58
2024/01/20 10:51:44;;;;;;;7.03;5.37;;;;;;;-144.30;100.00;86716.69;5069111;28;20196;-58
2024/01/20 10:54:12;;;;;;;5.70;5.20;;;;;;;-144.30;100.00;86748.50;5069762;28;20577;-57
2024/01/20 10:56:40;;;;;;;5.83;5.23;;;;;;;-144.30;100.00;86756.44;5069912;28;20206;-58
2024/01/20 10:59:12;;;;;;;5.93;5.23;;;;;;;-144.30;100.00;86762.41;5069659;28;20231;-56
2024/01/20 11:01:41;;;;;;;5.97;5.33;;;;;;;-144.30;100.00;86740.53;5070037;28;20266;-58
2024/01/20 11:04:08;;;;;;;5.50;4.93;;;;;;;-144.30;100.00;86740.53;5069761;28;20203;-57
2024/01/20 11:06:36;;;;;;;5.83;4.93;;;;;;;-144.30;100.00;86748.50;5068877;28;20206;-57
2024/01/20 11:09:04;;;;;;;4.80;4.40;;;;;;;-144.30;100.00;86738.56;5069557;28;20210;-58
2024/01/20 11:11:34;;;;;;;6.03;5.47;;;;;;;-144.30;100.00;86714.69;5070030;28;20191;-57
2024/01/20 11:14:03;;;;;;;8.30;6.40;;;;;;;-144.30;100.00;86760.44;5069539;28;20204;-57